createdAt,value
2019-01-02T00:01:46.528Z,17.20
2019-01-02T00:06:50.884Z,16.20
2019-01-02T00:11:54.558Z,21.17
2019-01-02T00:16:58.261Z,16.20
2019-01-02T00:22:01.953Z,17.80
2019-01-02T00:27:06.000Z,17.97
2019-01-02T00:32:10.159Z,16.07
2019-01-02T00:37:14.168Z,13.97
2019-01-02T00:42:18.369Z,18.57
2019-01-02T00:47:22.101Z,19.13
2019-01-02T00:52:25.780Z,20.43
2019-01-02T00:57:29.460Z,20.40
2019-01-02T01:02:33.172Z,20.87
2019-01-02T01:07:37.305Z,36.60
2019-01-02T01:12:41.161Z,17.87
2019-01-02T01:17:44.854Z,19.00
2019-01-02T01:22:48.936Z,18.60
2019-01-02T01:27:52.647Z,32.83
2019-01-02T01:32:56.325Z,26.57
2019-01-02T01:38:00.048Z,31.33
2019-01-02T01:43:03.732Z,29.77
2019-01-02T01:48:08.201Z,27.17
2019-01-02T01:53:11.909Z,19.63
2019-01-02T01:58:15.661Z,33.60
2019-01-02T02:03:19.797Z,29.93
2019-01-02T02:08:23.475Z,23.03
2019-01-02T02:13:27.452Z,26.17
2019-01-02T02:18:31.372Z,26.90
2019-01-02T02:23:35.418Z,25.87
2019-01-02T02:28:39.090Z,28.00
2019-01-02T02:33:42.752Z,29.07
2019-01-02T02:38:46.924Z,21.03
2019-01-02T02:43:51.064Z,30.20
2019-01-02T02:48:55.055Z,37.97
2019-01-02T02:53:59.486Z,22.40
2019-01-02T02:59:03.967Z,26.47
2019-01-02T03:04:08.096Z,29.93
2019-01-02T03:09:12.135Z,32.30
2019-01-02T03:14:15.833Z,23.87
2019-01-02T03:19:19.959Z,27.80
2019-01-02T03:24:24.101Z,29.27
2019-01-02T03:29:27.815Z,31.70
2019-01-02T03:34:31.969Z,26.67
2019-01-02T03:39:35.655Z,30.63
2019-01-02T03:44:39.362Z,28.97
2019-01-02T03:49:43.301Z,36.80
2019-01-02T03:54:46.976Z,29.77
2019-01-02T03:59:50.741Z,25.70
2019-01-02T04:04:54.421Z,32.63
2019-01-02T04:09:58.107Z,26.90
2019-01-02T04:15:01.799Z,27.57
2019-01-02T04:20:05.559Z,29.90
2019-01-02T04:25:09.254Z,30.10
2019-01-02T04:30:14.328Z,21.37
2019-01-02T04:35:18.354Z,25.27
2019-01-02T04:40:22.672Z,32.23
2019-01-02T04:45:26.383Z,22.53
2019-01-02T04:50:30.126Z,26.20
2019-01-02T04:55:33.949Z,37.67
2019-01-02T05:00:37.616Z,27.67
2019-01-02T05:05:41.634Z,27.77
2019-01-02T05:10:45.652Z,22.13
2019-01-02T05:15:49.679Z,27.07
2019-01-02T05:20:53.388Z,34.40
2019-01-02T05:25:57.079Z,26.57
2019-01-02T05:31:00.831Z,24.13
2019-01-02T05:36:04.585Z,21.77
2019-01-02T05:41:08.275Z,20.97
2019-01-02T05:46:12.035Z,21.53
2019-01-02T05:51:15.819Z,29.67
2019-01-02T05:56:19.548Z,25.30
2019-01-02T06:01:23.288Z,28.77
2019-01-02T06:06:27.026Z,20.87
2019-01-02T06:11:30.717Z,23.33
2019-01-02T06:16:34.427Z,22.60
2019-01-02T06:21:38.128Z,22.53
2019-01-02T06:26:42.096Z,20.90
2019-01-02T06:31:45.772Z,16.07
2019-01-02T06:36:49.471Z,21.73
2019-01-02T06:41:53.613Z,18.83
2019-01-02T06:46:57.629Z,22.83
2019-01-02T06:52:01.636Z,11.17
2019-01-02T06:57:05.784Z,22.17
2019-01-02T07:02:09.799Z,36.73
2019-01-02T07:07:13.714Z,44.87
2019-01-02T07:12:17.483Z,25.77
2019-01-02T07:17:21.176Z,32.40
2019-01-02T07:22:25.204Z,23.00
2019-01-02T07:27:29.240Z,22.40
2019-01-02T07:32:32.953Z,52.00
2019-01-02T07:37:54.769Z,22.10
2019-01-02T07:43:50.969Z,25.00
2019-01-02T07:49:15.996Z,17.33
2019-01-02T07:54:45.529Z,12.43
2019-01-02T08:00:26.283Z,18.70
2019-01-02T08:05:42.105Z,19.53
2019-01-02T08:10:58.023Z,19.37
2019-01-02T08:16:49.079Z,24.23
2019-01-02T08:22:30.897Z,20.07
2019-01-02T08:27:56.335Z,18.43
2019-01-02T08:33:23.404Z,10.13
2019-01-02T08:39:03.260Z,16.83
2019-01-02T08:44:47.548Z,13.30
2019-01-02T08:50:16.545Z,11.53
2019-01-02T08:56:04.822Z,15.47
2019-01-02T09:01:37.804Z,12.33
2019-01-02T09:06:53.120Z,14.50
2019-01-02T09:12:04.207Z,13.67
2019-01-02T09:17:46.858Z,8.33
2019-01-02T09:23:17.691Z,13.70
2019-01-02T09:29:01.488Z,10.27
2019-01-02T09:34:40.291Z,8.40
2019-01-02T09:40:11.028Z,10.77
2019-01-02T09:45:45.871Z,9.90
2019-01-02T09:51:35.919Z,14.50
2019-01-02T09:57:15.913Z,11.03
2019-01-02T10:02:48.005Z,12.77
2019-01-02T10:08:29.901Z,6.53
2019-01-02T10:14:24.183Z,11.83
2019-01-02T10:20:09.030Z,11.63
2019-01-02T10:25:40.796Z,5.87
2019-01-02T10:31:21.250Z,9.13
2019-01-02T10:36:43.144Z,13.67
2019-01-02T10:42:23.418Z,9.37
2019-01-02T10:47:43.916Z,11.83
2019-01-02T10:53:03.691Z,8.77
2019-01-02T10:59:03.811Z,9.57
2019-01-02T11:04:38.561Z,8.17
2019-01-02T11:10:13.556Z,9.33
2019-01-02T11:16:00.475Z,13.07
2019-01-02T11:21:18.044Z,8.00
2019-01-02T11:26:56.011Z,8.33
2019-01-02T11:32:35.241Z,9.03
2019-01-02T11:38:08.142Z,6.13
2019-01-02T11:43:43.736Z,2.77
2019-01-02T11:48:47.403Z,2.63
2019-01-02T11:53:51.161Z,1.30
2019-01-02T11:58:55.262Z,1.60
2019-01-02T12:03:58.934Z,1.97
2019-01-02T12:09:03.838Z,3.20
2019-01-02T12:14:07.779Z,0.83
2019-01-02T12:19:11.446Z,2.60
2019-01-02T12:24:15.212Z,1.67
2019-01-02T12:29:18.913Z,1.77
2019-01-02T12:34:22.600Z,2.27
2019-01-02T12:39:26.615Z,2.40
2019-01-02T12:44:30.347Z,4.43
2019-01-02T12:49:34.029Z,3.73
2019-01-02T12:54:37.688Z,5.87
2019-01-02T12:59:41.389Z,4.70
2019-01-02T13:05:28.216Z,4.77
2019-01-02T13:10:45.877Z,5.93
2019-01-02T13:16:03.465Z,5.17
2019-01-02T13:21:41.118Z,5.37
2019-01-02T13:27:07.917Z,6.13
2019-01-02T13:32:50.269Z,5.53
2019-01-02T13:38:36.927Z,3.83
2019-01-02T13:43:49.511Z,7.03
2019-01-02T13:49:23.346Z,3.03
2019-01-02T13:54:28.409Z,4.30
2019-01-02T13:59:32.317Z,3.00
2019-01-02T14:04:36.921Z,3.97
2019-01-02T14:09:40.894Z,3.40
2019-01-02T14:14:44.645Z,3.93
2019-01-02T14:19:49.205Z,4.20
2019-01-02T14:24:53.588Z,3.17
2019-01-02T14:29:57.759Z,3.17
2019-01-02T14:35:01.483Z,2.77
2019-01-02T14:40:05.604Z,3.80
2019-01-02T14:45:09.348Z,2.67
2019-01-02T14:50:13.148Z,2.63
2019-01-02T14:55:16.862Z,3.73
2019-01-02T15:00:20.758Z,12.60
2019-01-02T15:05:24.861Z,5.23
2019-01-02T15:10:28.682Z,7.77
2019-01-02T15:15:32.752Z,13.67
2019-01-02T15:20:36.635Z,10.63
2019-01-02T15:25:40.545Z,6.83
2019-01-02T15:30:44.723Z,4.90
2019-01-02T15:35:49.046Z,6.50
2019-01-02T15:40:52.885Z,9.37
2019-01-02T15:45:56.636Z,4.37
2019-01-02T15:51:00.319Z,8.73
2019-01-02T15:56:04.417Z,7.17
2019-01-02T16:01:08.426Z,4.43
2019-01-02T16:06:12.559Z,6.00
2019-01-02T16:11:16.712Z,5.17
2019-01-02T16:16:20.957Z,7.63
2019-01-02T16:21:24.674Z,6.33
2019-01-02T16:26:28.386Z,8.47
2019-01-02T16:31:32.128Z,4.47
2019-01-02T16:36:35.834Z,9.13
2019-01-02T16:41:39.758Z,2.63
2019-01-02T16:46:43.664Z,3.93
2019-01-02T16:51:47.542Z,3.43
2019-01-02T16:56:51.536Z,4.77
2019-01-02T17:01:55.262Z,6.27
2019-01-02T17:06:58.951Z,8.83
2019-01-02T17:12:02.659Z,7.53
2019-01-02T17:17:06.377Z,5.57
2019-01-02T17:22:10.232Z,5.60
2019-01-02T17:27:14.192Z,10.10
2019-01-02T17:32:17.873Z,6.10
2019-01-02T17:37:21.601Z,4.83
2019-01-02T17:42:25.352Z,8.30
2019-01-02T17:47:29.433Z,12.93
2019-01-02T17:52:33.168Z,6.40
2019-01-02T17:57:36.856Z,5.50
2019-01-02T18:02:40.688Z,8.70
2019-01-02T18:07:44.382Z,7.93
2019-01-02T18:12:49.133Z,9.37
2019-01-02T18:17:52.889Z,9.03
2019-01-02T18:22:56.734Z,8.17
2019-01-02T18:28:00.427Z,3.60
2019-01-02T18:33:04.197Z,10.67
2019-01-02T18:38:08.222Z,11.60
2019-01-02T18:43:11.948Z,4.53
2019-01-02T18:48:16.443Z,7.50
2019-01-02T18:53:20.880Z,4.83
2019-01-02T18:58:24.630Z,9.47
2019-01-02T19:03:28.515Z,7.63
2019-01-02T19:08:32.325Z,7.37
2019-01-02T19:13:36.392Z,7.67
2019-01-02T19:18:40.412Z,5.50
2019-01-02T19:23:44.246Z,4.97
2019-01-02T19:28:47.977Z,5.67
2019-01-02T19:33:51.789Z,6.57
2019-01-02T19:38:55.935Z,2.67
2019-01-02T19:43:59.731Z,4.43
2019-01-02T19:49:03.407Z,3.93
2019-01-02T19:54:07.797Z,4.53
2019-01-02T19:59:11.621Z,6.57
2019-01-02T20:04:15.497Z,6.10
2019-01-02T20:09:19.597Z,3.60
2019-01-02T20:14:23.322Z,3.30
2019-01-02T20:19:26.991Z,9.23
2019-01-02T20:24:30.960Z,3.67
2019-01-02T20:29:34.648Z,3.43
2019-01-02T20:34:38.697Z,3.13
2019-01-02T20:39:42.595Z,8.33
2019-01-02T20:44:46.405Z,6.07
2019-01-02T20:49:50.196Z,3.63
2019-01-02T20:54:54.014Z,9.07
2019-01-02T20:59:58.009Z,6.03
2019-01-02T21:05:01.836Z,5.57
2019-01-02T21:10:06.873Z,4.50
2019-01-02T21:15:10.907Z,3.67
2019-01-02T21:20:14.936Z,4.87
2019-01-02T21:25:21.812Z,5.47
2019-01-02T21:30:25.844Z,3.50
2019-01-02T21:35:29.577Z,4.90
2019-01-02T21:40:33.877Z,2.53
2019-01-02T21:45:39.857Z,5.57
2019-01-02T21:50:44.009Z,6.87
2019-01-02T21:55:50.311Z,3.37
2019-01-02T22:00:55.307Z,3.57
2019-01-02T22:05:59.693Z,2.53
2019-01-02T22:11:03.352Z,3.80
2019-01-02T22:16:07.146Z,6.90
2019-01-02T22:21:11.196Z,3.90
2019-01-02T22:26:15.214Z,6.77
2019-01-02T22:31:26.074Z,4.67
2019-01-02T22:36:29.966Z,6.00
2019-01-02T22:41:33.921Z,3.97
2019-01-02T22:46:37.840Z,4.60
2019-01-02T22:51:41.792Z,2.73
2019-01-02T22:56:45.511Z,5.70
2019-01-02T23:01:58.311Z,5.80
2019-01-02T23:07:16.964Z,7.00
2019-01-02T23:12:31.268Z,7.43
2019-01-02T23:17:59.882Z,7.63
2019-01-02T23:23:21.360Z,3.57
2019-01-02T23:28:50.404Z,7.30
2019-01-02T23:34:09.076Z,7.97
2019-01-02T23:39:46.784Z,5.90
2019-01-02T23:45:08.393Z,7.97
2019-01-02T23:50:32.315Z,8.13
2019-01-02T23:55:55.217Z,5.70
